createdAt,value
2023-01-26T00:01:25.447Z,97.97
2023-01-26T00:03:52.205Z,97.93
2023-01-26T00:06:20.771Z,97.80
2023-01-26T00:08:49.934Z,97.57
2023-01-26T00:11:19.329Z,98.02
2023-01-26T00:13:49.350Z,98.43
2023-01-26T00:16:16.352Z,98.13
2023-01-26T00:18:43.366Z,98.22
2023-01-26T00:21:18.798Z,97.87
2023-01-26T00:23:45.952Z,98.16
2023-01-26T00:26:19.389Z,98.50
2023-01-26T00:28:46.383Z,98.26
2023-01-26T00:31:15.317Z,98.44
2023-01-26T00:33:42.067Z,97.96
2023-01-26T00:36:09.305Z,98.12
2023-01-26T00:38:35.904Z,98.15
2023-01-26T00:41:02.997Z,97.97
2023-01-26T00:43:29.672Z,97.73
2023-01-26T00:45:56.320Z,97.86
2023-01-26T00:48:24.718Z,97.55
2023-01-26T00:50:52.495Z,97.19
2023-01-26T00:53:19.319Z,97.92
2023-01-26T00:55:45.903Z,97.84
2023-01-26T00:58:12.551Z,97.49
2023-01-26T01:00:39.531Z,98.09
2023-01-26T01:03:07.283Z,97.81
2023-01-26T01:05:34.745Z,97.72
2023-01-26T01:08:02.019Z,97.78
2023-01-26T01:10:29.052Z,97.89
2023-01-26T01:12:56.627Z,97.81
2023-01-26T01:15:24.281Z,97.59
2023-01-26T01:17:51.428Z,97.59
2023-01-26T01:20:18.108Z,97.70
2023-01-26T01:22:46.095Z,97.79
2023-01-26T01:25:12.784Z,97.98
2023-01-26T01:27:39.522Z,97.65
2023-01-26T01:30:08.247Z,97.73
2023-01-26T01:32:36.294Z,97.49
2023-01-26T01:35:03.628Z,97.56
2023-01-26T01:37:30.827Z,97.43
2023-01-26T01:39:57.526Z,97.90
2023-01-26T01:42:25.058Z,97.63
2023-01-26T01:45:29.456Z,97.86
2023-01-26T01:47:59.216Z,97.95
2023-01-26T01:50:26.511Z,97.83
2023-01-26T01:52:55.814Z,97.79
2023-01-26T01:55:24.653Z,97.81
2023-01-26T01:57:56.117Z,98.09
2023-01-26T02:00:23.898Z,98.19
2023-01-26T02:03:14.620Z,98.15
2023-01-26T02:06:00.460Z,98.23
2023-01-26T02:08:33.130Z,98.30
2023-01-26T02:11:05.610Z,98.19
2023-01-26T02:13:33.578Z,97.90
2023-01-26T02:16:00.866Z,98.26
2023-01-26T02:18:28.726Z,97.94
2023-01-26T02:21:00.582Z,97.96
2023-01-26T02:23:53.199Z,97.92
2023-01-26T02:26:22.905Z,97.59
2023-01-26T02:28:49.830Z,97.95
2023-01-26T02:31:17.866Z,97.99
2023-01-26T02:33:44.444Z,98.17
2023-01-26T02:36:27.469Z,98.27
2023-01-26T02:39:12.095Z,98.49
2023-01-26T02:41:58.306Z,98.50
2023-01-26T02:44:25.877Z,97.54
2023-01-26T02:46:53.750Z,97.68
2023-01-26T02:49:38.729Z,97.80
2023-01-26T02:52:06.309Z,97.92
2023-01-26T02:54:51.560Z,98.29
2023-01-26T02:57:18.213Z,97.59
2023-01-26T02:59:45.014Z,97.59
2023-01-26T03:02:11.971Z,97.63
2023-01-26T03:04:38.626Z,97.87
2023-01-26T03:07:05.272Z,97.72
2023-01-26T03:09:31.865Z,97.56
2023-01-26T03:11:58.441Z,97.22
2023-01-26T03:14:25.020Z,97.81
2023-01-26T03:16:51.647Z,97.37
2023-01-26T03:19:36.835Z,97.71
2023-01-26T03:22:22.080Z,97.60
2023-01-26T03:25:07.008Z,97.21
2023-01-26T03:27:40.623Z,97.02
2023-01-26T03:30:07.884Z,97.32
2023-01-26T03:32:34.470Z,97.22
2023-01-26T03:35:01.117Z,97.58
2023-01-26T03:37:27.848Z,97.58
2023-01-26T03:40:13.068Z,97.49
2023-01-26T03:42:58.496Z,97.00
2023-01-26T03:45:43.571Z,97.24
2023-01-26T03:48:31.112Z,97.62
2023-01-26T03:51:16.574Z,97.20
2023-01-26T03:54:02.500Z,97.70
2023-01-26T03:56:33.031Z,97.74
2023-01-26T03:59:08.634Z,97.93
2023-01-26T04:01:38.187Z,97.54
2023-01-26T04:04:24.355Z,98.00
2023-01-26T04:07:09.924Z,97.67
2023-01-26T04:09:37.652Z,97.70
2023-01-26T04:12:04.777Z,97.49
2023-01-26T04:14:50.805Z,97.69
2023-01-26T04:17:37.007Z,98.05
2023-01-26T04:20:24.248Z,97.71
2023-01-26T04:22:50.940Z,97.44
2023-01-26T04:25:19.619Z,97.32
2023-01-26T04:27:46.442Z,97.73
2023-01-26T04:30:15.130Z,97.88
2023-01-26T04:32:43.463Z,97.94
2023-01-26T04:35:10.868Z,97.66
2023-01-26T04:37:38.493Z,97.57
2023-01-26T04:40:06.401Z,97.76
2023-01-26T04:42:33.074Z,97.97
2023-01-26T04:44:59.832Z,98.01
2023-01-26T04:47:29.073Z,98.00
2023-01-26T04:49:55.925Z,97.74
2023-01-26T04:52:22.602Z,97.51
2023-01-26T04:54:49.326Z,97.37
2023-01-26T04:57:15.926Z,97.45
2023-01-26T04:59:42.536Z,97.59
2023-01-26T05:02:09.656Z,97.60
2023-01-26T05:04:36.420Z,97.76
2023-01-26T05:07:02.991Z,97.65
2023-01-26T05:09:29.651Z,97.81
2023-01-26T05:12:16.165Z,97.54
2023-01-26T05:14:42.825Z,97.99
2023-01-26T05:17:09.486Z,97.87
2023-01-26T05:19:36.038Z,97.95
2023-01-26T05:22:02.775Z,97.38
2023-01-26T05:24:30.298Z,97.86
2023-01-26T05:27:16.832Z,97.25
2023-01-26T05:29:43.569Z,96.87
2023-01-26T05:32:10.137Z,96.96
2023-01-26T05:34:36.693Z,96.71
2023-01-26T05:37:03.372Z,97.30
2023-01-26T05:39:30.371Z,97.01
2023-01-26T05:41:57.058Z,97.08
2023-01-26T05:44:27.271Z,97.28
2023-01-26T05:46:53.938Z,97.02
2023-01-26T05:49:20.851Z,97.33
2023-01-26T05:51:47.939Z,97.54
2023-01-26T05:54:14.491Z,97.83
2023-01-26T05:56:41.172Z,97.92
2023-01-26T05:59:07.884Z,98.23
2023-01-26T06:01:34.637Z,97.66
2023-01-26T06:04:01.314Z,97.38
2023-01-26T06:06:27.933Z,96.89
2023-01-26T06:08:55.745Z,96.90
2023-01-26T06:11:22.328Z,96.89
2023-01-26T06:13:49.274Z,97.16
2023-01-26T06:16:15.855Z,97.44
2023-01-26T06:18:42.397Z,97.25
2023-01-26T06:21:09.464Z,96.88
2023-01-26T06:23:36.233Z,96.77
2023-01-26T06:26:02.844Z,97.08
2023-01-26T06:28:30.850Z,97.05
2023-01-26T06:31:01.337Z,96.94
2023-01-26T06:33:28.102Z,97.16
2023-01-26T06:35:55.765Z,97.20
2023-01-26T06:38:22.373Z,97.21
2023-01-26T06:40:49.041Z,97.29
2023-01-26T06:43:15.579Z,96.90
2023-01-26T06:45:42.612Z,96.59
2023-01-26T06:48:09.126Z,96.49
2023-01-26T06:50:36.042Z,96.54
2023-01-26T06:53:25.665Z,96.42
2023-01-26T06:55:52.532Z,96.68
2023-01-26T06:58:19.074Z,96.47
2023-01-26T07:00:45.636Z,96.54
2023-01-26T07:03:12.216Z,96.64
2023-01-26T07:05:38.928Z,96.33
2023-01-26T07:08:08.578Z,96.41
2023-01-26T07:10:38.732Z,96.45
2023-01-26T07:13:06.444Z,96.49
2023-01-26T07:15:33.069Z,96.70
2023-01-26T07:18:00.500Z,96.33
2023-01-26T07:20:27.320Z,96.33
2023-01-26T07:22:53.860Z,96.36
2023-01-26T07:25:20.516Z,96.35
2023-01-26T07:27:47.163Z,96.42
2023-01-26T07:30:16.980Z,96.37
2023-01-26T07:32:43.911Z,96.43
2023-01-26T07:35:10.648Z,96.42
2023-01-26T07:37:37.157Z,96.31
2023-01-26T07:40:04.227Z,96.40
2023-01-26T07:42:31.085Z,96.51
2023-01-26T07:44:57.805Z,96.08
2023-01-26T07:47:25.735Z,96.36
2023-01-26T07:49:52.466Z,96.41
2023-01-26T07:52:19.236Z,96.58
2023-01-26T07:54:45.787Z,96.48
2023-01-26T07:57:12.973Z,96.41
2023-01-26T07:59:39.586Z,96.32
2023-01-26T08:02:06.140Z,95.77
2023-01-26T08:04:32.941Z,95.39
2023-01-26T08:06:59.555Z,95.84
2023-01-26T08:09:26.518Z,95.88
2023-01-26T08:11:53.255Z,95.53
2023-01-26T08:14:19.857Z,95.71
2023-01-26T08:16:46.646Z,95.91
2023-01-26T08:19:13.430Z,95.21
2023-01-26T08:21:40.020Z,94.96
2023-01-26T08:24:07.445Z,95.73
2023-01-26T08:26:34.963Z,95.74
2023-01-26T08:29:01.658Z,95.50
2023-01-26T08:31:28.475Z,96.07
2023-01-26T08:33:55.968Z,96.26
2023-01-26T08:36:23.250Z,96.16
2023-01-26T08:38:51.142Z,95.89
2023-01-26T08:41:18.402Z,95.96
2023-01-26T08:43:45.162Z,95.81
2023-01-26T08:46:11.858Z,95.62
2023-01-26T08:48:38.707Z,96.10
2023-01-26T08:51:06.643Z,95.98
2023-01-26T08:53:35.555Z,96.16
2023-01-26T08:56:03.575Z,95.88
2023-01-26T08:58:30.271Z,96.00
2023-01-26T09:00:57.132Z,96.10
2023-01-26T09:03:23.821Z,96.19
2023-01-26T09:05:51.090Z,96.38
2023-01-26T09:08:17.672Z,96.20
2023-01-26T09:10:45.183Z,96.05
2023-01-26T09:13:11.790Z,95.41
2023-01-26T09:15:38.820Z,95.60
2023-01-26T09:18:05.485Z,95.73
2023-01-26T09:20:32.087Z,95.95
2023-01-26T09:22:58.691Z,95.91
2023-01-26T09:25:25.389Z,96.05
2023-01-26T09:27:51.967Z,95.90
2023-01-26T09:30:18.947Z,95.59
2023-01-26T09:32:45.584Z,95.28
2023-01-26T09:35:14.526Z,95.79
2023-01-26T09:37:43.559Z,95.64
2023-01-26T09:40:17.936Z,95.92
2023-01-26T09:43:06.053Z,95.20
2023-01-26T09:45:44.993Z,95.20
2023-01-26T09:48:27.062Z,95.28
2023-01-26T09:51:09.335Z,95.24
2023-01-26T09:53:52.641Z,95.23
2023-01-26T09:56:22.204Z,95.33
2023-01-26T09:58:58.475Z,95.16
2023-01-26T10:01:35.479Z,94.63
2023-01-26T10:04:32.619Z,94.38
2023-01-26T10:07:01.923Z,94.01
2023-01-26T10:09:34.865Z,93.92
2023-01-26T10:12:08.264Z,93.89
2023-01-26T10:14:40.739Z,93.87
2023-01-26T10:17:16.943Z,94.32
2023-01-26T10:19:51.138Z,94.27
2023-01-26T10:22:48.317Z,94.01
2023-01-26T10:25:27.833Z,93.95
2023-01-26T10:27:54.564Z,93.96
2023-01-26T10:30:22.105Z,93.96
2023-01-26T10:32:53.012Z,93.24
2023-01-26T10:35:22.167Z,93.32
2023-01-26T10:37:52.238Z,92.82
2023-01-26T10:40:19.979Z,92.75
2023-01-26T10:42:58.155Z,93.11
2023-01-26T10:45:31.625Z,93.15
2023-01-26T10:48:04.076Z,93.34
2023-01-26T10:50:31.896Z,93.43
2023-01-26T10:53:01.230Z,92.78
2023-01-26T10:55:28.981Z,92.72
2023-01-26T10:57:56.031Z,93.09
2023-01-26T11:00:23.324Z,92.99
2023-01-26T11:03:02.277Z,92.99
2023-01-26T11:05:28.889Z,93.22
2023-01-26T11:08:02.113Z,93.40
2023-01-26T11:10:39.413Z,93.04
2023-01-26T11:13:19.255Z,93.33
2023-01-26T11:16:10.505Z,92.47
2023-01-26T11:19:07.197Z,91.46
2023-01-26T11:21:41.319Z,92.05
2023-01-26T11:24:21.060Z,92.46
2023-01-26T11:27:12.128Z,92.81
2023-01-26T11:30:00.545Z,92.32
2023-01-26T11:32:51.058Z,92.23
2023-01-26T11:35:23.584Z,92.70
2023-01-26T11:38:14.429Z,92.82
2023-01-26T11:40:52.519Z,92.27
2023-01-26T11:43:26.801Z,92.73
2023-01-26T11:45:59.451Z,92.54
2023-01-26T11:48:45.216Z,92.74
2023-01-26T11:51:11.803Z,92.51
2023-01-26T11:54:03.460Z,92.51
2023-01-26T11:56:51.002Z,92.41
2023-01-26T11:59:21.789Z,92.93
2023-01-26T12:01:56.694Z,92.04
2023-01-26T12:04:23.682Z,92.54
2023-01-26T12:07:01.470Z,92.50
2023-01-26T12:09:37.992Z,91.88
2023-01-26T12:12:17.019Z,91.78
2023-01-26T12:14:58.750Z,92.24
2023-01-26T12:17:29.733Z,92.18
2023-01-26T12:20:04.975Z,92.39
2023-01-26T12:22:36.783Z,92.10
2023-01-26T12:25:32.289Z,92.06
2023-01-26T12:28:20.751Z,92.77
2023-01-26T12:31:08.058Z,92.99
2023-01-26T12:33:36.307Z,92.71
2023-01-26T12:36:35.976Z,92.46
2023-01-26T12:39:36.562Z,91.90
2023-01-26T12:42:09.815Z,92.23
2023-01-26T12:44:40.485Z,92.75
2023-01-26T12:47:34.384Z,92.39
2023-01-26T12:50:09.567Z,92.65
2023-01-26T12:52:56.145Z,93.19
2023-01-26T12:55:30.712Z,93.09
2023-01-26T12:58:02.455Z,92.94
2023-01-26T13:00:33.357Z,93.10
2023-01-26T13:03:14.838Z,93.68
2023-01-26T13:05:59.556Z,92.60
2023-01-26T13:08:31.934Z,92.49
2023-01-26T13:11:00.362Z,93.26
2023-01-26T13:13:26.917Z,93.00
2023-01-26T13:16:12.049Z,93.40
2023-01-26T13:18:55.721Z,92.99
2023-01-26T13:21:40.404Z,93.65
2023-01-26T13:24:16.424Z,93.89
2023-01-26T13:26:56.830Z,94.16
2023-01-26T13:29:29.213Z,94.33
2023-01-26T13:31:58.638Z,94.09
2023-01-26T13:34:38.273Z,94.28
2023-01-26T13:37:14.653Z,94.60
2023-01-26T13:39:46.092Z,94.10
2023-01-26T13:42:36.303Z,93.70
2023-01-26T13:45:19.754Z,93.99
2023-01-26T13:47:50.641Z,93.65
2023-01-26T13:50:30.725Z,93.75
2023-01-26T13:52:57.816Z,93.84
2023-01-26T13:55:27.392Z,93.12
2023-01-26T13:58:14.523Z,92.73
2023-01-26T14:00:41.625Z,93.47
2023-01-26T14:03:22.275Z,93.89
2023-01-26T14:05:58.317Z,93.77
2023-01-26T14:08:25.554Z,93.99
2023-01-26T14:10:52.681Z,93.85
2023-01-26T14:13:35.920Z,94.05
2023-01-26T14:16:08.212Z,94.05
2023-01-26T14:18:35.459Z,93.96
2023-01-26T14:21:14.303Z,94.50
2023-01-26T14:23:40.835Z,94.07
2023-01-26T14:26:20.098Z,93.85
2023-01-26T14:28:47.117Z,93.60
2023-01-26T14:31:20.946Z,94.05
2023-01-26T14:33:51.813Z,94.11
2023-01-26T14:36:20.707Z,94.33
2023-01-26T14:38:53.016Z,94.44
2023-01-26T14:41:35.028Z,94.31
2023-01-26T14:44:03.931Z,94.70
2023-01-26T14:46:44.556Z,93.81
2023-01-26T14:49:16.210Z,94.15
2023-01-26T14:51:46.852Z,94.02
2023-01-26T14:54:24.942Z,94.07
2023-01-26T14:56:51.855Z,93.75
2023-01-26T14:59:33.391Z,94.27
2023-01-26T15:02:24.890Z,94.20
2023-01-26T15:04:59.898Z,93.89
2023-01-26T15:07:35.463Z,93.99
2023-01-26T15:10:04.531Z,94.63
2023-01-26T15:12:35.556Z,94.56
2023-01-26T15:15:02.666Z,94.26
2023-01-26T15:17:40.232Z,94.55
2023-01-26T15:20:15.733Z,94.43
2023-01-26T15:22:50.157Z,94.09
2023-01-26T15:25:20.844Z,94.24
2023-01-26T15:28:00.753Z,94.66
2023-01-26T15:30:35.802Z,94.41
2023-01-26T15:33:03.231Z,94.71
2023-01-26T15:35:34.813Z,94.47
2023-01-26T15:38:13.088Z,94.22
2023-01-26T15:40:39.945Z,94.42
2023-01-26T15:43:16.317Z,94.27
2023-01-26T15:45:54.557Z,94.11
2023-01-26T15:48:22.845Z,94.75
2023-01-26T15:50:49.953Z,94.78
2023-01-26T15:53:21.153Z,94.64
2023-01-26T15:55:52.649Z,94.47
2023-01-26T15:58:19.647Z,94.08
2023-01-26T16:00:46.638Z,94.34
2023-01-26T16:03:18.779Z,94.38
2023-01-26T16:05:49.126Z,94.36
2023-01-26T16:08:17.226Z,93.95
2023-01-26T16:10:44.597Z,94.68
2023-01-26T16:13:12.773Z,94.68
2023-01-26T16:15:39.540Z,94.39
2023-01-26T16:18:06.819Z,94.67
2023-01-26T16:20:34.355Z,94.79
2023-01-26T16:23:01.098Z,95.30
2023-01-26T16:25:30.029Z,94.77
2023-01-26T16:27:58.088Z,94.61
2023-01-26T16:30:25.745Z,94.81
2023-01-26T16:32:52.829Z,94.65
2023-01-26T16:35:22.162Z,94.83
2023-01-26T16:37:48.841Z,95.19
2023-01-26T16:40:18.501Z,95.06
2023-01-26T16:42:48.610Z,95.20
2023-01-26T16:45:19.834Z,95.39
2023-01-26T16:47:54.764Z,95.53
2023-01-26T16:50:25.550Z,95.48
2023-01-26T16:52:52.973Z,95.48
2023-01-26T16:55:20.125Z,95.31
2023-01-26T16:57:49.798Z,95.28
2023-01-26T17:00:19.322Z,95.16
2023-01-26T17:02:51.708Z,95.02
2023-01-26T17:05:21.095Z,94.85
2023-01-26T17:07:50.748Z,94.88
2023-01-26T17:10:18.102Z,95.37
2023-01-26T17:12:44.967Z,95.29
2023-01-26T17:15:12.651Z,95.33
2023-01-26T17:17:39.442Z,95.27
2023-01-26T17:20:18.462Z,95.29
2023-01-26T17:22:45.787Z,95.36
2023-01-26T17:25:16.058Z,95.51
2023-01-26T17:27:46.033Z,94.97
2023-01-26T17:30:12.978Z,94.95
2023-01-26T17:32:39.557Z,95.37
2023-01-26T17:35:06.568Z,95.52
2023-01-26T17:37:33.295Z,95.38
2023-01-26T17:40:00.055Z,95.33
2023-01-26T17:42:27.546Z,95.11
2023-01-26T17:44:54.170Z,95.50
2023-01-26T17:47:20.779Z,95.31
2023-01-26T17:49:47.492Z,95.32
2023-01-26T17:52:14.407Z,95.52
2023-01-26T17:54:41.551Z,95.26
2023-01-26T17:57:08.883Z,95.32
2023-01-26T17:59:36.422Z,95.60
2023-01-26T18:02:03.191Z,95.75
2023-01-26T18:04:31.400Z,95.68
2023-01-26T18:06:58.347Z,95.48
2023-01-26T18:09:25.284Z,95.49
2023-01-26T18:11:51.850Z,95.52
2023-01-26T18:14:18.545Z,95.68
2023-01-26T18:16:45.400Z,96.27
2023-01-26T18:19:12.014Z,96.19
2023-01-26T18:21:38.809Z,95.87
2023-01-26T18:24:06.086Z,96.20
2023-01-26T18:26:35.928Z,96.05
2023-01-26T18:29:04.821Z,96.37
2023-01-26T18:31:34.684Z,96.36
2023-01-26T18:34:03.251Z,96.25
2023-01-26T18:36:30.310Z,96.31
2023-01-26T18:39:02.890Z,96.21
2023-01-26T18:41:33.015Z,96.48
2023-01-26T18:44:00.170Z,96.72
2023-01-26T18:46:28.140Z,96.44
2023-01-26T18:49:00.344Z,96.70
2023-01-26T18:51:29.590Z,96.71
2023-01-26T18:53:56.325Z,96.67
2023-01-26T18:56:23.153Z,96.87
2023-01-26T18:58:52.711Z,96.67
2023-01-26T19:01:21.165Z,96.35
2023-01-26T19:03:53.925Z,96.71
2023-01-26T19:06:21.891Z,96.89
2023-01-26T19:09:02.669Z,97.18
2023-01-26T19:11:31.961Z,97.21
2023-01-26T19:13:59.472Z,97.06
2023-01-26T19:16:27.001Z,97.31
2023-01-26T19:18:55.342Z,97.04
2023-01-26T19:21:24.514Z,97.10
2023-01-26T19:23:53.093Z,96.93
2023-01-26T19:26:25.715Z,96.92
2023-01-26T19:28:54.197Z,97.21
2023-01-26T19:31:21.820Z,97.20
2023-01-26T19:34:03.616Z,97.43
2023-01-26T19:36:32.228Z,97.39
2023-01-26T19:38:59.265Z,97.23
2023-01-26T19:41:26.445Z,97.57
2023-01-26T19:43:53.528Z,97.71
2023-01-26T19:46:20.723Z,98.03
2023-01-26T19:48:47.830Z,97.83
2023-01-26T19:51:17.505Z,97.78
2023-01-26T19:53:46.751Z,97.99
2023-01-26T19:56:21.558Z,98.01
2023-01-26T19:58:59.791Z,98.01
2023-01-26T20:01:27.932Z,98.21
2023-01-26T20:03:58.875Z,98.27
2023-01-26T20:06:28.363Z,98.43
2023-01-26T20:08:55.311Z,98.57
2023-01-26T20:11:25.092Z,98.78
2023-01-26T20:13:59.154Z,98.84
2023-01-26T20:16:29.155Z,98.82
2023-01-26T20:18:57.151Z,98.75
2023-01-26T20:21:24.232Z,98.46
2023-01-26T20:23:54.974Z,98.32
2023-01-26T20:26:25.125Z,98.79
2023-01-26T20:28:51.995Z,98.73
2023-01-26T20:31:21.646Z,98.75
2023-01-26T20:33:49.828Z,98.53
2023-01-26T20:36:19.051Z,98.22
2023-01-26T20:38:46.937Z,98.33
2023-01-26T20:41:16.851Z,98.30
2023-01-26T20:43:58.121Z,98.03
2023-01-26T20:46:27.025Z,98.10
2023-01-26T20:48:56.951Z,98.28
2023-01-26T20:51:28.619Z,98.43
2023-01-26T20:53:55.677Z,98.62
2023-01-26T20:56:22.692Z,98.67
2023-01-26T20:58:52.908Z,98.50
2023-01-26T21:01:20.342Z,98.52
2023-01-26T21:03:47.302Z,98.33
2023-01-26T21:06:18.376Z,98.15
2023-01-26T21:08:46.733Z,98.35
2023-01-26T21:11:15.789Z,98.42
2023-01-26T21:13:43.263Z,98.55
2023-01-26T21:16:13.029Z,98.67
2023-01-26T21:18:40.131Z,98.56
2023-01-26T21:21:10.118Z,98.61
2023-01-26T21:23:36.683Z,98.75
2023-01-26T21:26:06.019Z,98.92
2023-01-26T21:28:33.420Z,98.76
2023-01-26T21:31:01.812Z,98.71
2023-01-26T21:33:33.089Z,99.05
2023-01-26T21:36:02.082Z,98.75
2023-01-26T21:38:34.938Z,98.80
2023-01-26T21:41:03.806Z,99.02
2023-01-26T21:43:30.453Z,98.84
2023-01-26T21:45:58.511Z,98.72
2023-01-26T21:48:31.526Z,98.85
2023-01-26T21:51:17.526Z,98.93
2023-01-26T21:53:44.513Z,99.08
2023-01-26T21:56:12.921Z,98.98
2023-01-26T21:58:54.729Z,99.09
2023-01-26T22:01:21.930Z,99.16
2023-01-26T22:03:49.147Z,99.06
2023-01-26T22:06:15.763Z,99.21
2023-01-26T22:08:42.450Z,98.96
2023-01-26T22:11:09.094Z,98.83
2023-01-26T22:13:36.801Z,98.77
2023-01-26T22:16:04.687Z,99.12
2023-01-26T22:18:31.504Z,99.05
2023-01-26T22:20:58.119Z,99.03
2023-01-26T22:23:25.870Z,98.55
2023-01-26T22:25:52.479Z,98.45
2023-01-26T22:28:19.070Z,98.61
2023-01-26T22:30:45.625Z,98.60
2023-01-26T22:33:12.874Z,98.24
2023-01-26T22:35:39.546Z,98.59
2023-01-26T22:38:06.067Z,98.70
2023-01-26T22:40:32.759Z,98.87
2023-01-26T22:42:59.566Z,98.95
2023-01-26T22:45:26.162Z,99.12
2023-01-26T22:47:53.474Z,99.27
2023-01-26T22:50:20.030Z,99.24
2023-01-26T22:52:46.593Z,99.12
2023-01-26T22:55:13.335Z,99.36
2023-01-26T22:57:39.969Z,99.45
2023-01-26T23:00:08.941Z,99.55
2023-01-26T23:02:35.660Z,99.58
2023-01-26T23:05:02.349Z,99.50
2023-01-26T23:07:29.107Z,99.28
2023-01-26T23:09:55.795Z,99.17
2023-01-26T23:12:22.456Z,99.23
2023-01-26T23:14:49.018Z,99.33
2023-01-26T23:17:15.751Z,99.33
2023-01-26T23:19:42.274Z,99.36
2023-01-26T23:22:08.981Z,99.36
2023-01-26T23:24:35.717Z,99.32
2023-01-26T23:27:02.293Z,99.34
2023-01-26T23:29:28.910Z,99.40
2023-01-26T23:31:55.584Z,99.31
2023-01-26T23:34:22.419Z,99.24
2023-01-26T23:36:49.026Z,99.27
2023-01-26T23:39:15.738Z,99.35
2023-01-26T23:41:42.401Z,99.22
2023-01-26T23:44:10.118Z,99.32
2023-01-26T23:46:36.839Z,99.18
2023-01-26T23:49:03.547Z,98.91
2023-01-26T23:51:30.129Z,99.16
2023-01-26T23:53:56.893Z,99.30
2023-01-26T23:56:23.413Z,99.22
2023-01-26T23:58:50.121Z,99.22
